Time;durP1;ratioP1;P1;durP2;ratioP2;P2;SDS_P1;SDS_P2;PMS_P1;PMS_P2;Temp;Humidity;BMP_temperature;BMP_pressure;BME280_temperature;BME280_humidity;BME280_pressure;Samples;Min_cycle;Max_cycle;Signal;HPM_P1;HPM_P2
2022/04/09 00:00:43;;;;;;;13.65;2.80;;;4.00;99.90;;;;;;4954975;29;20055;-61
2022/04/09 00:03:10;;;;;;;11.27;2.60;;;;;;;;;;4954811;29;20138;-61
2022/04/09 00:05:36;;;;;;;13.70;2.70;;;;;;;;;;4955165;29;20053;-61
2022/04/09 00:08:02;;;;;;;12.60;2.70;;;3.90;99.90;;;;;;4954904;29;20059;-61
2022/04/09 00:10:28;;;;;;;12.60;2.75;;;;;;;;;;4955031;29;20415;-61
2022/04/09 00:12:54;;;;;;;13.75;3.45;;;;;;;;;;4955055;29;20470;-60
2022/04/09 00:15:20;;;;;;;20.08;3.22;;;;;;;;;;4955039;29;20047;-61
2022/04/09 00:17:47;;;;;;;12.73;2.83;;;3.90;99.90;;;;;;4954874;29;20482;-61
2022/04/09 00:20:15;;;;;;;16.13;3.13;;;3.70;99.90;;;;;;4954759;29;20087;-61
2022/04/09 00:22:41;;;;;;;13.00;3.33;;;3.90;99.90;;;;;;4954382;29;20086;-61
2022/04/09 00:25:09;;;;;;;18.15;3.50;;;3.70;99.90;;;;;;4954811;29;20086;-60
2022/04/09 00:27:35;;;;;;;11.13;3.15;;;;;;;;;;4937531;29;20058;-61
2022/04/09 00:30:01;;;;;;;17.27;3.20;;;;;;;;;;4954520;29;20237;-61
2022/04/09 00:32:28;;;;;;;22.23;4.28;;;3.70;99.90;;;;;;4954520;29;20164;-60
2022/04/09 00:34:54;;;;;;;12.93;3.13;;;;;;;;;;4954653;29;20097;-61
2022/04/09 00:37:20;;;;;;;18.63;3.65;;;;;;;;;;4936990;29;20495;-60
2022/04/09 00:39:46;;;;;;;17.83;3.22;;;3.90;99.90;;;;;;4937290;29;20293;-60
2022/04/09 00:42:18;;;;;;;15.27;3.38;;;3.90;99.90;;;;;;4954108;28;20051;-60
2022/04/09 00:44:44;;;;;;;13.55;3.10;;;3.90;99.90;;;;;;4954643;29;20051;-60
2022/04/09 00:47:11;;;;;;;9.82;2.42;;;;;;;;;;4954570;29;20043;-60
2022/04/09 00:49:38;;;;;;;11.40;2.85;;;4.00;99.90;;;;;;4936830;29;20054;-60
2022/04/09 00:52:05;;;;;;;11.52;2.55;;;3.80;99.90;;;;;;4954345;29;20300;-60
2022/04/09 00:54:32;;;;;;;12.25;2.55;;;3.90;99.90;;;;;;4937133;29;20065;-60
2022/04/09 00:57:05;;;;;;;12.45;2.70;;;3.80;99.90;;;;;;4954174;29;20495;-61
2022/04/09 00:59:32;;;;;;;11.63;2.70;;;3.50;99.90;;;;;;4954105;29;20062;-60
2022/04/09 01:01:58;;;;;;;9.20;2.67;;;;;;;;;;5008031;23;20169;-81
2022/04/09 01:04:24;;;;;;;14.30;3.00;;;4.10;99.90;;;;;;5012810;28;20200;-81
2022/04/09 01:06:50;;;;;;;14.55;3.33;;;;;;;;;;5013054;28;20038;-81
2022/04/09 01:09:16;;;;;;;11.73;2.92;;;3.40;99.90;;;;;;5012707;28;20376;-81
2022/04/09 01:11:42;;;;;;;15.98;3.40;;;;;;;;;;5012720;28;20125;-81
2022/04/09 01:14:08;;;;;;;13.95;3.08;;;;;;;;;;4994716;28;20062;-79
2022/04/09 01:16:35;;;;;;;15.07;3.22;;;;;;;;;;5012532;28;20130;-79
2022/04/09 01:19:01;;;;;;;14.95;3.00;;;;;;;;;;5012672;28;20057;-78
2022/04/09 01:21:28;;;;;;;14.23;3.05;;;4.10;99.90;;;;;;5012136;28;20054;-79
2022/04/09 01:23:56;;;;;;;14.02;3.00;;;2.50;99.90;;;;;;5012236;28;20038;-79
2022/04/09 01:26:22;;;;;;;15.38;3.25;;;3.60;99.90;;;;;;5012739;28;20124;-79
2022/04/09 01:28:49;;;;;;;13.20;2.88;;;;;;;;;;5012461;28;20049;-81
2022/04/09 01:31:16;;;;;;;10.15;2.70;;;3.80;99.90;;;;;;4994386;28;20064;-78
2022/04/09 01:33:42;;;;;;;9.23;2.58;;;;;;;;;;5011958;28;20053;-79
2022/04/09 01:36:08;;;;;;;11.25;2.83;;;;;;;;;;5012048;28;20049;-80
2022/04/09 01:38:35;;;;;;;9.18;2.35;;;;;;;;;;5012407;28;20053;-79
2022/04/09 01:41:03;;;;;;;12.60;2.65;;;3.90;99.90;;;;;;5012449;28;20128;-79
2022/04/09 01:43:32;;;;;;;20.15;3.28;;;;;;;;;;5011829;28;20049;-80
2022/04/09 01:45:58;;;;;;;11.50;2.90;;;3.70;99.90;;;;;;5012039;28;20077;-79
2022/04/09 01:48:23;;;;;;;16.52;2.75;;;4.40;99.90;;;;;;5012255;28;20506;-80
2022/04/09 01:50:49;;;;;;;8.00;2.45;;;;;;;;;;5011978;28;20061;-79
2022/04/09 01:53:15;;;;;;;11.55;3.03;;;;;;;;;;5010585;28;20137;-79
2022/04/09 01:55:46;;;;;;;11.77;2.80;;;3.80;99.90;;;;;;5011258;28;20081;-79
2022/04/09 01:58:12;;;;;;;12.40;2.65;;;3.90;99.90;;;;;;5011786;28;20507;-79
2022/04/09 02:00:39;;;;;;;13.23;3.20;;;3.70;99.90;;;;;;4977844;28;20149;-80
2022/04/09 02:03:05;;;;;;;14.98;3.03;;;3.60;99.90;;;;;;4993585;28;20459;-79
2022/04/09 02:05:31;;;;;;;16.67;3.40;;;;;;;;;;5011706;28;20050;-80
2022/04/09 02:07:58;;;;;;;15.88;3.25;;;;;;;;;;4994344;28;20125;-80
2022/04/09 02:10:24;;;;;;;22.48;3.72;;;;;;;;;;5012031;28;20532;-80
2022/04/09 02:12:50;;;;;;;14.82;3.70;;;;;;;;;;5011633;28;20061;-80
2022/04/09 02:15:17;;;;;;;20.67;3.58;;;3.70;99.90;;;;;;5011646;28;20057;-79
2022/04/09 02:17:46;;;;;;;11.75;2.88;;;3.70;99.90;;;;;;5011633;28;20084;-80
2022/04/09 02:20:15;;;;;;;16.27;3.20;;;3.70;99.90;;;;;;5012042;28;20184;-80
2022/04/09 02:22:43;;;;;;;12.43;3.03;;;3.80;99.90;;;;;;4993799;28;20054;-79
2022/04/09 02:25:13;;;;;;;12.65;3.75;;;3.90;99.90;;;;;;4993863;28;20473;-79
2022/04/09 02:27:39;;;;;;;12.65;3.10;;;;;;;;;;5011459;28;20199;-80
2022/04/09 02:30:07;;;;;;;16.92;3.28;;;3.80;99.90;;;;;;5011713;28;20418;-80
2022/04/09 02:32:49;;;;;;;17.05;3.10;;;3.80;99.90;;;;;;5011449;28;20136;-80
2022/04/09 02:35:17;;;;;;;17.02;3.70;;;3.80;99.90;;;;;;5011437;28;20081;-80
2022/04/09 02:37:42;;;;;;;15.15;3.63;;;3.80;99.90;;;;;;5010911;28;20050;-80
2022/04/09 02:40:09;;;;;;;14.25;3.33;;;3.70;99.90;;;;;;5011627;28;20042;-80
2022/04/09 02:42:41;;;;;;;17.00;3.40;;;3.70;99.90;;;;;;4993313;28;20066;-81
2022/04/09 02:45:09;;;;;;;20.02;3.58;;;3.50;99.90;;;;;;5011425;28;20046;-80
2022/04/09 02:47:35;;;;;;;22.85;3.53;;;3.50;99.90;;;;;;5011047;28;20516;-80
2022/04/09 02:50:02;;;;;;;13.80;3.28;;;3.40;99.90;;;;;;5011068;28;20046;-80
2022/04/09 02:52:39;;;;;;;18.73;3.53;;;3.60;99.90;;;;;;4993873;28;20061;-79
2022/04/09 02:55:06;;;;;;;15.48;3.28;;;3.40;99.90;;;;;;5011248;28;20050;-79
2022/04/09 02:57:32;;;;;;;14.93;3.13;;;;;;;;;;5011146;28;20050;-79
2022/04/09 02:59:58;;;;;;;13.55;2.90;;;3.40;99.90;;;;;;5010966;28;20046;-79
2022/04/09 03:02:24;;;;;;;9.98;2.83;;;3.20;99.90;;;;;;5010950;28;20255;-80
2022/04/09 03:04:52;;;;;;;14.88;3.00;;;;;;;;;;5011102;28;20057;-80
2022/04/09 03:07:18;;;;;;;16.42;3.28;;;;;;;;;;4997112;28;20160;-80
2022/04/09 03:09:44;;;;;;;13.13;2.90;;;;;;;;;;5014966;28;20116;-80
2022/04/09 03:12:10;;;;;;;17.58;3.17;;;;;;;;;;5015199;28;20060;-80
2022/04/09 03:14:36;;;;;;;15.30;3.20;;;2.90;99.90;;;;;;5014950;28;20405;-80
2022/04/09 03:17:02;;;;;;;11.48;2.70;;;3.20;99.90;;;;;;5014602;28;20045;-79
2022/04/09 03:19:28;;;;;;;14.27;2.85;;;;;;;;;;5014331;28;20075;-79
2022/04/09 03:21:54;;;;;;;11.68;2.85;;;;;;;;;;4997289;28;20105;-79
2022/04/09 03:24:21;;;;;;;13.05;2.83;;;3.10;99.90;;;;;;5014773;28;20096;-78
2022/04/09 03:26:47;;;;;;;13.45;3.13;;;;;;;;;;5014823;28;20046;-78
2022/04/09 03:29:16;;;;;;;13.52;2.88;;;;;;;;;;5014429;28;20071;-78
2022/04/09 03:31:42;;;;;;;12.63;2.92;;;;;;;;;;5014530;28;20046;-78
2022/04/09 03:34:08;;;;;;;9.13;2.70;;;;;;;;;;5014738;28;20129;-78
2022/04/09 03:36:34;;;;;;;13.68;2.60;;;2.60;99.90;;;;;;4996910;28;20061;-79
2022/04/09 03:39:00;;;;;;;11.25;2.35;;;2.80;99.90;;;;;;4996438;28;20065;-78
2022/04/09 03:41:26;;;;;;;10.18;2.63;;;2.80;99.90;;;;;;5014130;28;20100;-78
2022/04/09 03:43:53;;;;;;;11.30;2.65;;;;;;;;;;4996402;28;20046;-78
2022/04/09 03:46:19;;;;;;;12.52;2.55;;;;;;;;;;5014365;28;20461;-78
2022/04/09 03:48:45;;;;;;;9.98;2.63;;;2.60;99.90;;;;;;5014262;28;20108;-78
2022/04/09 03:51:12;;;;;;;12.93;2.40;;;;;;;;;;5013867;28;20056;-78
2022/04/09 03:53:40;;;;;;;14.73;2.70;;;2.90;99.90;;;;;;5014010;28;20050;-80
2022/04/09 03:56:06;;;;;;;13.00;2.70;;;;;;;;;;5014186;28;20072;-80
2022/04/09 03:58:31;;;;;;;9.23;2.30;;;2.80;99.90;;;;;;5013922;28;20137;-80
2022/04/09 04:00:58;;;;;;;10.60;2.70;;;2.60;99.90;;;;;;5013689;28;20121;-61
2022/04/09 04:03:26;;;;;;;10.18;2.50;;;;;;;;;;5014116;28;20050;-62
2022/04/09 04:05:52;;;;;;;11.32;2.70;;;;;;;;;;5013866;28;20306;-61
2022/04/09 04:08:17;;;;;;;7.45;2.25;;;3.20;99.90;;;;;;4995953;28;20507;-61
2022/04/09 04:10:43;;;;;;;11.85;2.70;;;2.90;99.90;;;;;;5013884;28;20393;-61
2022/04/09 04:13:11;;;;;;;13.88;2.47;;;;;;;;;;5013804;28;20046;-61
2022/04/09 04:15:42;;;;;;;8.35;2.30;;;;;;;;;;5013992;28;20054;-64
2022/04/09 04:18:08;;;;;;;10.95;2.22;;;2.70;99.90;;;;;;5012688;28;20054;-61
2022/04/09 04:20:35;;;;;;;10.25;2.20;;;4.00;99.90;;;;;;5013335;28;20054;-61
2022/04/09 04:23:03;;;;;;;8.18;2.33;;;;;;;;;;4996107;28;20112;-61
2022/04/09 04:25:29;;;;;;;10.80;2.60;;;3.70;99.90;;;;;;4995793;28;20073;-61
2022/04/09 04:27:55;;;;;;;6.47;1.88;;;;;;;;;;5013489;28;20049;-61
2022/04/09 04:30:24;;;;;;;10.80;2.08;;;3.10;99.90;;;;;;5013424;28;20081;-61
2022/04/09 04:32:50;;;;;;;8.43;1.88;;;;;;;;;;5013415;28;20128;-61
2022/04/09 04:35:16;;;;;;;9.80;2.15;;;;;;;;;;5013524;28;20056;-61
2022/04/09 04:37:43;;;;;;;7.63;2.20;;;3.10;99.90;;;;;;5013299;28;20042;-60
2022/04/09 04:40:11;;;;;;;7.18;2.30;;;2.90;99.90;;;;;;5013277;28;20045;-61
2022/04/09 04:42:38;;;;;;;9.43;2.20;;;2.90;99.90;;;;;;4995527;28;20516;-61
2022/04/09 04:45:05;;;;;;;10.85;1.88;;;3.20;99.90;;;;;;4995691;28;20179;-61
2022/04/09 04:47:31;;;;;;;14.93;2.40;;;2.60;99.90;;;;;;5013184;28;20049;-61
2022/04/09 04:49:58;;;;;;;10.90;2.30;;;;;;;;;;5012717;28;20420;-61
2022/04/09 04:52:24;;;;;;;10.32;2.22;;;;;;;;;;4995167;28;20065;-62
2022/04/09 04:54:50;;;;;;;11.00;2.10;;;;;;;;;;5012710;28;20049;-61
2022/04/09 04:57:16;;;;;;;10.82;2.10;;;;;;;;;;4979048;28;20042;-61
2022/04/09 04:59:42;;;;;;;11.52;2.20;;;;;;;;;;5012606;28;20084;-60
2022/04/09 05:02:10;;;;;;;10.43;2.20;;;;;;;;;;5012430;28;20077;-61
2022/04/09 05:04:36;;;;;;;12.50;2.40;;;;;;;;;;4994788;28;20062;-61
2022/04/09 05:07:02;;;;;;;10.48;2.20;;;;;;;;;;5012927;28;20052;-61
2022/04/09 05:09:27;;;;;;;11.82;2.33;;;2.90;99.90;;;;;;5012742;28;20074;-61
2022/04/09 05:11:53;;;;;;;9.80;2.00;;;3.30;99.90;;;;;;5011083;28;20429;-61
2022/04/09 05:14:19;;;;;;;10.32;2.30;;;;;;;;;;4994678;28;20060;-61
2022/04/09 05:16:45;;;;;;;5.68;2.10;;;3.00;99.90;;;;;;4995079;28;20058;-61
2022/04/09 05:19:11;;;;;;;8.55;2.17;;;3.30;99.90;;;;;;4994655;28;20061;-61
2022/04/09 05:21:37;;;;;;;6.97;2.20;;;3.30;99.90;;;;;;4994594;28;20049;-61
2022/04/09 05:24:03;;;;;;;12.18;2.67;;;3.60;99.90;;;;;;4994550;28;20406;-61
2022/04/09 05:26:29;;;;;;;9.38;2.15;;;;;;;;;;4978496;28;20057;-61
2022/04/09 05:28:54;;;;;;;16.30;2.67;;;3.70;99.90;;;;;;5011115;28;20136;-61
2022/04/09 05:31:27;;;;;;;7.85;2.28;;;3.60;99.90;;;;;;5011831;28;20573;-61
2022/04/09 05:33:55;;;;;;;10.15;2.13;;;3.80;99.90;;;;;;5011909;28;20049;-61
2022/04/09 05:36:21;;;;;;;7.93;2.13;;;;;;;;;;4994420;28;20046;-61
2022/04/09 05:38:48;;;;;;;9.73;2.10;;;4.30;99.90;;;;;;5012208;28;20042;-61
2022/04/09 05:41:14;;;;;;;9.38;2.20;;;;;;;;;;4994303;28;20575;-61
2022/04/09 05:43:40;;;;;;;8.90;2.17;;;5.80;99.90;;;;;;5011693;28;20132;-61
2022/04/09 05:46:06;;;;;;;11.25;2.20;;;;;;;;;;5011951;28;20120;-61
2022/04/09 05:48:32;;;;;;;8.95;2.00;;;;;;;;;;5011826;28;20042;-61
2022/04/09 05:50:58;;;;;;;6.80;2.00;;;8.00;99.90;;;;;;5011717;28;20053;-61
2022/04/09 05:53:24;;;;;;;6.65;2.05;;;;;;;;;;4993910;28;20470;-62
2022/04/09 05:55:51;;;;;;;8.77;2.25;;;8.40;99.90;;;;;;5011685;28;20497;-61
2022/04/09 05:58:20;;;;;;;8.45;1.90;;;8.80;99.90;;;;;;5010578;28;20049;-61
2022/04/09 06:00:46;;;;;;;6.75;1.88;;;9.90;99.90;;;;;;5011313;28;20064;-62
2022/04/09 06:03:12;;;;;;;9.77;2.05;;;;;;;;;;5011814;28;20054;-62
2022/04/09 06:05:38;;;;;;;8.88;1.90;;;;;;;;;;5011624;28;20045;-61
2022/04/09 06:08:04;;;;;;;7.88;2.00;;;;;;;;;;5011699;28;20060;-61
2022/04/09 06:10:32;;;;;;;8.55;2.10;;;11.40;99.90;;;;;;5011510;28;20053;-62
2022/04/09 06:12:58;;;;;;;7.45;2.03;;;12.60;99.90;;;;;;4978152;28;20049;-62
2022/04/09 06:15:24;;;;;;;10.82;2.30;;;13.00;99.90;;;;;;4994021;28;20575;-62
2022/04/09 06:17:49;;;;;;;9.95;2.00;;;13.30;99.90;;;;;;5011799;28;20046;-62
2022/04/09 06:20:16;;;;;;;9.73;2.20;;;;;;;;;;4993940;28;20056;-63
2022/04/09 06:22:42;;;;;;;9.75;2.00;;;;;;;;;;4993525;28;20062;-62
2022/04/09 06:25:08;;;;;;;5.82;1.90;;;11.30;99.90;;;;;;5011536;28;20084;-62
2022/04/09 06:27:39;;;;;;;7.63;2.17;;;10.80;99.90;;;;;;4993743;28;20192;-62
2022/04/09 06:30:06;;;;;;;10.30;2.55;;;10.60;99.90;;;;;;5011405;28;20400;-62
2022/04/09 06:32:31;;;;;;;7.78;2.25;;;10.70;99.90;;;;;;4993659;28;20050;-62
2022/04/09 06:34:57;;;;;;;7.32;1.98;;;;;;;;;;5011416;28;20104;-62
2022/04/09 06:37:27;;;;;;;7.20;2.25;;;;;;;;;;5011548;28;20401;-62
2022/04/09 06:39:53;;;;;;;8.35;2.15;;;;;;;;;;5011846;28;20050;-62
2022/04/09 06:42:19;;;;;;;6.85;2.08;;;;;;;;;;4997283;28;20429;-62
2022/04/09 06:44:46;;;;;;;6.88;2.20;;;;;;;;;;5015196;28;20050;-62
2022/04/09 06:47:12;;;;;;;11.45;2.45;;;;;;;;;;5015188;28;20053;-62
2022/04/09 06:49:38;;;;;;;9.73;2.30;;;;;;;;;;5013895;28;20041;-62
2022/04/09 06:52:05;;;;;;;12.35;2.65;;;;;;;;;;5014887;28;20081;-77
2022/04/09 06:54:32;;;;;;;8.60;2.20;;;13.70;95.80;;;;;;4997123;28;20129;-74
2022/04/09 06:56:58;;;;;;;9.68;2.55;;;;;;;;;;5014701;28;20096;-78
2022/04/09 06:59:24;;;;;;;12.27;2.58;;;;;;;;;;5013817;28;20088;-76
2022/04/09 07:01:50;;;;;;;9.70;2.47;;;14.50;92.90;;;;;;4996914;28;20137;-77
2022/04/09 07:04:16;;;;;;;10.48;2.63;;;14.80;95.00;;;;;;5014897;28;20121;-76
2022/04/09 07:06:44;;;;;;;10.43;2.28;;;15.30;87.30;;;;;;5014635;28;20057;-76
2022/04/09 07:09:10;;;;;;;9.82;2.67;;;14.80;86.80;;;;;;5015056;28;20052;-76
2022/04/09 07:11:36;;;;;;;10.63;2.15;;;;;;;;;;5014876;28;20042;-76
2022/04/09 07:14:01;;;;;;;17.95;2.67;;;15.60;81.20;;;;;;5013539;28;20041;-78
2022/04/09 07:16:27;;;;;;;9.00;2.40;;;;;;;;;;5014526;28;20087;-76
2022/04/09 07:18:54;;;;;;;10.70;2.55;;;;;;;;;;4997206;28;20385;-77
2022/04/09 07:21:20;;;;;;;10.82;2.58;;;13.50;91.90;;;;;;5014575;28;20046;-62
2022/04/09 07:23:45;;;;;;;15.48;2.70;;;14.60;94.30;;;;;;4996566;28;20489;-62
2022/04/09 07:26:11;;;;;;;12.60;2.70;;;;;;;;;;5014204;28;20146;-62
2022/04/09 07:28:39;;;;;;;12.05;2.60;;;;;;;;;;5013878;28;20528;-62
2022/04/09 07:31:05;;;;;;;11.20;2.63;;;;;;;;;;4996709;28;20064;-62
2022/04/09 07:33:31;;;;;;;12.15;2.70;;;;;;;;;;5014430;28;20078;-62
2022/04/09 07:35:58;;;;;;;9.07;2.40;;;;;;;;;;5012903;28;20524;-62
2022/04/09 07:38:24;;;;;;;10.85;2.50;;;;;;;;;;5014100;28;20045;-62
2022/04/09 07:40:50;;;;;;;9.27;2.60;;;;;;;;;;4996854;28;20502;-62
2022/04/09 07:43:16;;;;;;;8.77;2.65;;;10.70;99.90;;;;;;5014047;28;20100;-62
2022/04/09 07:45:41;;;;;;;12.05;2.10;;;11.60;99.90;;;;;;5014153;28;20049;-62
2022/04/09 07:48:11;;;;;;;7.60;2.20;;;;;;;;;;5012656;28;20048;-62
2022/04/09 07:50:38;;;;;;;8.77;2.20;;;16.10;95.30;;;;;;5013077;28;20046;-62
2022/04/09 07:53:05;;;;;;;8.15;2.35;;;;;;;;;;5012762;28;20064;-62
2022/04/09 07:55:31;;;;;;;8.50;2.47;;;12.70;99.90;;;;;;5014048;28;20311;-62
2022/04/09 07:57:58;;;;;;;8.90;2.28;;;;;;;;;;4996065;28;20216;-62
2022/04/09 08:00:24;;;;;;;8.93;2.30;;;;;;;;;;5014105;28;20382;-62
2022/04/09 08:02:50;;;;;;;8.07;2.40;;;;;;;;;;5013506;28;20069;-62
2022/04/09 08:05:18;;;;;;;16.77;4.82;;;13.20;95.40;;;;;;4996011;28;20525;-62
2022/04/09 08:07:44;;;;;;;12.30;2.63;;;13.40;88.10;;;;;;5013381;28;20041;-62
2022/04/09 08:10:11;;;;;;;12.27;2.70;;;;;;;;;;5013959;28;20053;-62
2022/04/09 08:12:38;;;;;;;11.63;2.60;;;12.80;99.90;;;;;;5013454;28;20474;-62
2022/04/09 08:15:04;;;;;;;10.93;2.55;;;;;;;;;;4995776;28;20482;-62
2022/04/09 08:17:30;;;;;;;13.68;2.60;;;12.90;99.90;;;;;;5013340;28;20049;-62
2022/04/09 08:19:56;;;;;;;8.77;2.45;;;13.00;93.10;;;;;;5013515;28;20042;-62
2022/04/09 08:22:27;;;;;;;7.60;2.08;;;;;;;;;;5013914;28;20410;-64
2022/04/09 08:24:53;;;;;;;12.55;2.47;;;12.80;99.90;;;;;;5013534;28;20056;-62
2022/04/09 08:27:19;;;;;;;12.13;2.53;;;;;;;;;;4995495;28;20358;-62
2022/04/09 08:29:45;;;;;;;6.57;1.95;;;;;;;;;;5013293;28;20049;-62
2022/04/09 08:32:10;;;;;;;8.13;2.03;;;12.20;99.90;;;;;;5013560;28;20077;-62
2022/04/09 08:34:37;;;;;;;7.90;2.30;;;;;;;;;;4995479;28;20081;-62
2022/04/09 08:37:06;;;;;;;8.00;2.78;;;12.00;99.90;;;;;;5013124;28;20090;-62
2022/04/09 08:39:33;;;;;;;8.20;2.22;;;11.70;98.00;;;;;;5013239;28;20446;-62
2022/04/09 08:41:59;;;;;;;8.05;2.22;;;;;;;;;;4979499;28;20074;-62
2022/04/09 08:44:25;;;;;;;8.70;2.05;;;;;;;;;;5013132;28;20058;-62
2022/04/09 08:46:54;;;;;;;12.27;2.50;;;11.80;98.30;;;;;;5013110;28;20049;-63
2022/04/09 08:49:20;;;;;;;11.15;2.47;;;12.00;99.90;;;;;;4995091;28;20053;-63
2022/04/09 08:51:46;;;;;;;8.13;2.10;;;11.40;99.90;;;;;;5012886;28;20045;-63
2022/04/09 08:54:12;;;;;;;7.03;2.38;;;;;;;;;;5012984;28;20523;-62
2022/04/09 08:56:38;;;;;;;7.50;1.92;;;11.70;99.90;;;;;;5012679;28;20160;-62
2022/04/09 08:59:05;;;;;;;9.63;2.50;;;11.90;93.80;;;;;;4978935;28;20133;-62
2022/04/09 09:01:32;;;;;;;6.18;1.70;;;12.30;91.60;;;;;;4979098;28;20471;-63
2022/04/09 09:03:58;;;;;;;5.75;1.90;;;12.80;97.50;;;;;;5012327;28;20065;-62
2022/04/09 09:06:29;;;;;;;5.60;1.70;;;13.10;90.80;;;;;;4994797;28;20053;-63
2022/04/09 09:09:00;;;;;;;8.63;1.90;;;12.90;85.50;;;;;;5012375;28;20544;-63
2022/04/09 09:11:27;;;;;;;7.35;2.20;;;12.40;97.00;;;;;;5012566;28;20058;-62
2022/04/09 09:13:58;;;;;;;7.13;2.03;;;12.20;90.30;;;;;;5012738;28;20069;-63
2022/04/09 09:16:29;;;;;;;7.15;2.15;;;12.00;99.90;;;;;;4994490;28;20050;-63
2022/04/09 09:19:03;;;;;;;9.02;2.10;;;11.80;97.80;;;;;;5012209;28;20042;-63
2022/04/09 09:21:29;;;;;;;8.48;2.17;;;;;;;;;;4978638;28;20136;-63
2022/04/09 09:24:12;;;;;;;7.93;2.05;;;11.80;92.20;;;;;;5011086;28;20049;-63
2022/04/09 09:26:38;;;;;;;11.00;2.17;;;;;;;;;;5012594;28;20052;-63
2022/04/09 09:29:04;;;;;;;8.32;1.90;;;;;;;;;;5012230;28;20405;-63
2022/04/09 09:31:45;;;;;;;6.93;1.80;;;12.00;92.60;;;;;;5012125;28;20053;-62
2022/04/09 09:34:19;;;;;;;7.15;1.90;;;12.10;91.00;;;;;;5012148;28;20049;-63
2022/04/09 09:36:45;;;;;;;7.22;1.92;;;12.20;90.40;;;;;;4994411;28;20513;-63
2022/04/09 09:39:16;;;;;;;4.97;1.70;;;12.20;90.10;;;;;;5012200;28;20053;-63
2022/04/09 09:41:52;;;;;;;8.68;1.90;;;12.30;90.80;;;;;;5012150;28;20121;-63
2022/04/09 09:44:19;;;;;;;;;;;12.20;89.40;;;;;;4994394;28;20053;-63
2022/04/09 09:46:47;;;;;;;10.13;2.10;;;12.00;94.10;;;;;;5012061;28;20030;-63
2022/04/09 09:49:13;;;;;;;6.20;1.80;;;;;;;;;;5012114;28;20053;-63
2022/04/09 09:51:39;;;;;;;7.72;1.65;;;12.10;96.50;;;;;;4994355;28;20447;-63
2022/04/09 09:54:13;;;;;;;8.45;2.00;;;12.50;90.30;;;;;;5011572;28;20128;-63
2022/04/09 09:56:41;;;;;;;8.38;2.05;;;12.30;95.90;;;;;;4993974;28;20049;-64
2022/04/09 09:59:12;;;;;;;7.72;2.15;;;13.00;95.90;;;;;;4994177;28;20054;-63
2022/04/09 10:01:40;;;;;;;10.15;2.28;;;12.40;86.20;;;;;;5011534;28;20379;-63
2022/04/09 10:04:08;;;;;;;8.63;1.92;;;12.30;91.00;;;;;;4993760;28;20282;-63
2022/04/09 10:06:35;;;;;;;5.78;1.80;;;12.10;97.50;;;;;;5011547;28;20125;-63
2022/04/09 10:09:05;;;;;;;6.47;1.67;;;12.40;90.10;;;;;;4994028;28;20100;-63
2022/04/09 10:11:37;;;;;;;5.35;1.70;;;12.60;94.70;;;;;;4994051;28;20049;-63
2022/04/09 10:14:08;;;;;;;6.10;1.80;;;12.60;82.00;;;;;;4993857;28;20042;-64
2022/04/09 10:16:37;;;;;;;7.82;1.67;;;12.50;93.90;;;;;;5011094;28;20449;-64
2022/04/09 10:19:09;;;;;;;6.68;2.10;;;12.40;83.70;;;;;;4993597;28;20092;-63
2022/04/09 10:21:39;;;;;;;9.10;1.90;;;12.30;83.00;;;;;;4993859;28;20061;-64
2022/04/09 10:24:14;;;;;;;8.80;1.90;;;12.20;90.90;;;;;;5011479;28;20085;-63
2022/04/09 10:26:42;;;;;;;4.95;1.58;;;12.20;97.10;;;;;;5010223;28;20164;-64
2022/04/09 10:29:12;;;;;;;7.25;2.10;;;;;;;;;;4993378;28;20499;-64
2022/04/09 10:31:39;;;;;;;11.63;2.53;;;12.00;88.70;;;;;;5011430;28;20127;-64
2022/04/09 10:34:12;;;;;;;7.80;2.20;;;11.90;93.80;;;;;;5011259;28;20555;-64
2022/04/09 10:36:40;;;;;;;11.95;2.15;;;12.10;90.70;;;;;;4977466;28;20054;-64
2022/04/09 10:39:29;;;;;;;13.13;2.47;;;10.90;93.60;;;;;;5011195;28;20049;-63
2022/04/09 10:41:55;;;;;;;8.20;2.05;;;10.00;98.80;;;;;;4993320;28;20057;-65
2022/04/09 10:44:44;;;;;;;7.07;1.88;;;9.40;99.90;;;;;;4993266;28;20133;-64
2022/04/09 10:47:14;;;;;;;7.85;2.28;;;8.90;99.90;;;;;;4993641;28;20159;-63
2022/04/09 10:50:05;;;;;;;7.30;2.00;;;9.10;99.90;;;;;;4993213;28;20617;-63
2022/04/09 10:52:32;;;;;;;9.50;1.85;;;8.20;99.90;;;;;;4993374;28;20077;-63
2022/04/09 10:55:04;;;;;;;7.97;2.00;;;8.70;99.90;;;;;;5010868;28;20504;-63
2022/04/09 10:57:42;;;;;;;7.68;1.85;;;8.50;99.90;;;;;;5010367;28;20509;-63
2022/04/09 11:00:09;;;;;;;7.35;2.35;;;;;;;;;;5011430;28;20064;-62
2022/04/09 11:02:35;;;;;;;10.38;1.80;;;;;;;;;;4992926;28;20054;-63
2022/04/09 11:05:21;;;;;;;11.25;2.10;;;8.90;99.90;;;;;;5011163;28;20133;-63
2022/04/09 11:08:07;;;;;;;7.70;1.90;;;9.20;99.90;;;;;;5011022;28;20045;-63
2022/04/09 11:10:32;;;;;;;5.97;1.92;;;9.40;99.90;;;;;;5011037;28;20377;-63
2022/04/09 11:12:58;;;;;;;12.32;2.40;;;;;;;;;;4993587;28;20050;-62
2022/04/09 11:15:28;;;;;;;11.48;2.35;;;9.30;99.90;;;;;;5011041;28;20073;-63
2022/04/09 11:18:01;;;;;;;5.57;1.70;;;8.90;99.90;;;;;;4993037;28;20081;-63
2022/04/09 11:20:34;;;;;;;6.50;1.77;;;7.90;99.90;;;;;;5010597;28;20111;-62
2022/04/09 11:23:15;;;;;;;4.65;1.65;;;8.00;99.90;;;;;;5010596;28;20140;-63
2022/04/09 11:25:44;;;;;;;7.15;1.63;;;7.70;99.90;;;;;;5010955;28;20052;-63
2022/04/09 11:28:18;;;;;;;5.07;1.38;;;7.70;99.90;;;;;;4997011;28;20038;-63
2022/04/09 11:31:02;;;;;;;6.57;2.25;;;7.00;99.90;;;;;;4996945;28;20176;-63
2022/04/09 11:33:28;;;;;;;6.30;1.65;;;;;;;;;;5014348;28;20061;-63
2022/04/09 11:35:54;;;;;;;8.18;2.00;;;;;;;;;;4996249;28;20141;-63
2022/04/09 11:38:24;;;;;;;7.25;1.90;;;6.90;99.90;;;;;;4997188;28;20101;-63
2022/04/09 11:40:50;;;;;;;7.50;1.65;;;;;;;;;;5014316;28;20054;-63
2022/04/09 11:43:18;;;;;;;8.50;2.13;;;7.50;99.90;;;;;;5013955;28;20230;-63
2022/04/09 11:45:44;;;;;;;8.20;1.90;;;8.10;99.90;;;;;;4996699;28;20168;-63
2022/04/09 11:48:16;;;;;;;8.13;2.22;;;8.20;99.90;;;;;;4996752;28;20512;-64
2022/04/09 11:50:42;;;;;;;10.13;2.20;;;;;;;;;;5014299;28;20042;-64
2022/04/09 11:53:12;;;;;;;10.23;2.53;;;8.90;99.90;;;;;;5014072;28;20405;-64
2022/04/09 11:55:40;;;;;;;7.63;1.77;;;9.10;99.90;;;;;;5013807;28;20442;-63
2022/04/09 11:58:07;;;;;;;9.80;2.28;;;;;;;;;;5013909;28;20401;-63
2022/04/09 12:00:42;;;;;;;9.18;2.30;;;9.60;99.90;;;;;;5013951;28;20069;-63
2022/04/09 12:03:08;;;;;;;7.45;1.98;;;9.90;99.90;;;;;;4996206;28;20054;-63
2022/04/09 12:05:46;;;;;;;8.10;1.98;;;10.30;99.90;;;;;;5013847;28;20054;-63
2022/04/09 12:08:13;;;;;;;12.00;2.50;;;10.00;99.90;;;;;;4996282;28;20096;-64
2022/04/09 12:10:57;;;;;;;11.18;2.50;;;10.00;99.90;;;;;;5013946;28;20390;-64
2022/04/09 12:13:36;;;;;;;7.18;2.00;;;9.90;99.90;;;;;;5013656;28;20050;-64
2022/04/09 12:16:14;;;;;;;10.27;2.20;;;9.60;99.90;;;;;;5013451;28;20050;-64
2022/04/09 12:18:40;;;;;;;10.57;2.35;;;9.80;99.90;;;;;;4995862;28;20054;-64
2022/04/09 12:21:21;;;;;;;10.90;2.17;;;9.90;99.90;;;;;;4995739;28;20128;-63
2022/04/09 12:24:00;;;;;;;11.07;2.15;;;9.90;99.90;;;;;;5013551;28;20115;-64
2022/04/09 12:26:26;;;;;;;9.55;1.98;;;;;;;;;;5012267;28;20090;-65
2022/04/09 12:29:22;;;;;;;10.85;2.20;;;10.50;99.90;;;;;;4995882;28;20054;-65
2022/04/09 12:31:53;;;;;;;8.32;2.08;;;10.70;99.90;;;;;;5013580;28;20050;-64
2022/04/09 12:34:21;;;;;;;7.65;1.92;;;10.90;99.90;;;;;;5013482;28;20133;-64
2022/04/09 12:37:04;;;;;;;6.30;1.70;;;10.70;99.90;;;;;;5013218;28;20050;-64
2022/04/09 12:39:33;;;;;;;8.07;2.00;;;;;;;;;;4996071;28;20551;-65
2022/04/09 12:41:59;;;;;;;7.75;1.90;;;;;;;;;;4995512;28;20501;-65
2022/04/09 12:44:30;;;;;;;9.32;1.70;;;11.40;99.90;;;;;;5013116;28;20049;-65
2022/04/09 12:46:56;;;;;;;6.90;2.05;;;;;;;;;;4995186;28;20045;-64
2022/04/09 12:49:30;;;;;;;8.10;1.92;;;11.50;99.90;;;;;;5012772;28;20184;-64
2022/04/09 12:51:57;;;;;;;6.90;2.03;;;11.80;99.90;;;;;;5012580;28;20046;-64
2022/04/09 12:54:28;;;;;;;5.72;1.77;;;11.80;99.90;;;;;;5013105;28;20042;-64
2022/04/09 12:56:54;;;;;;;5.13;1.65;;;;;;;;;;4995380;28;20401;-64
2022/04/09 12:59:20;;;;;;;6.80;1.80;;;;;;;;;;5012844;28;20060;-65
2022/04/09 13:01:47;;;;;;;7.45;1.98;;;10.90;99.90;;;;;;5012837;28;20058;-65
2022/04/09 13:04:13;;;;;;;5.15;1.60;;;11.30;99.90;;;;;;5012824;28;20050;-65
2022/04/09 13:06:40;;;;;;;7.45;1.83;;;10.30;99.90;;;;;;5012509;28;20509;-65
2022/04/09 13:09:08;;;;;;;5.50;1.85;;;;;;;;;;5012390;28;20446;-65
2022/04/09 13:11:34;;;;;;;9.80;1.95;;;9.50;99.90;;;;;;5012881;28;20064;-65
2022/04/09 13:14:00;;;;;;;7.15;1.90;;;9.00;99.90;;;;;;4995112;28;20129;-64
2022/04/09 13:16:26;;;;;;;6.32;1.40;;;;;;;;;;5012735;28;20457;-64
2022/04/09 13:18:52;;;;;;;6.40;1.58;;;;;;;;;;4994578;28;20056;-65
2022/04/09 13:21:17;;;;;;;5.32;1.55;;;8.60;99.90;;;;;;4994602;28;20054;-65
2022/04/09 13:23:43;;;;;;;7.35;1.77;;;;;;;;;;5012621;28;20396;-65
2022/04/09 13:26:09;;;;;;;6.95;1.67;;;;;;;;;;5012244;28;20081;-64
2022/04/09 13:28:35;;;;;;;6.15;1.70;;;9.40;99.90;;;;;;4994581;28;20489;-64
2022/04/09 13:31:01;;;;;;;8.50;1.88;;;;;;;;;;4994444;28;20073;-64